Time;durP1;ratioP1;P1;durP2;ratioP2;P2;SDS_P1;SDS_P2;PMS_P1;PMS_P2;Temp;Humidity;BMP_temperature;BMP_pressure;BME280_temperature;BME280_humidity;BME280_pressure;Samples;Min_cycle;Max_cycle;Signal;HPM_P1;HPM_P2
2022/05/15 00:01:21;;;;;;;4.07;2.17;;;19.40;70.00;;;;;;5023300;28;20457;-82
2022/05/15 00:03:49;;;;;;;1.90;1.70;;;19.30;69.30;;;;;;5019396;28;20502;-80
2022/05/15 00:06:17;;;;;;;2.17;2.03;;;19.30;71.20;;;;;;5020621;28;21019;-80
2022/05/15 00:08:46;;;;;;;2.03;1.93;;;19.30;72.80;;;;;;5028627;28;20449;-79
2022/05/15 00:11:17;;;;;;;2.60;1.90;;;19.30;72.60;;;;;;5020334;28;20983;-81
2022/05/15 00:13:48;;;;;;;1.83;1.67;;;19.30;70.90;;;;;;5031896;28;20476;-80
2022/05/15 00:16:18;;;;;;;3.13;1.90;;;19.30;70.90;;;;;;5020223;28;20484;-80
2022/05/15 00:18:46;;;;;;;2.47;1.97;;;19.20;72.10;;;;;;5032941;28;20453;-79
2022/05/15 00:21:14;;;;;;;2.10;1.70;;;19.20;74.30;;;;;;5024318;28;20451;-79
2022/05/15 00:23:43;;;;;;;2.27;2.07;;;19.20;73.20;;;;;;5020064;28;20456;-81
2022/05/15 00:26:12;;;;;;;2.70;2.50;;;19.10;71.70;;;;;;5016322;28;20553;-80
2022/05/15 00:28:41;;;;;;;2.37;2.17;;;19.10;70.50;;;;;;5024108;28;20454;-80
2022/05/15 00:31:11;;;;;;;5.30;2.27;;;19.10;73.10;;;;;;5019892;28;20841;-80
2022/05/15 00:33:39;;;;;;;3.17;2.20;;;19.10;76.20;;;;;;5024965;28;20481;-80
2022/05/15 00:36:07;;;;;;;2.77;2.30;;;19.10;73.50;;;;;;5027552;28;20472;-79
2022/05/15 00:38:35;;;;;;;3.10;2.30;;;19.10;74.30;;;;;;5027739;28;20495;-79
2022/05/15 00:41:04;;;;;;;2.10;2.00;;;19.00;74.30;;;;;;5018365;28;20562;-79
2022/05/15 00:43:40;;;;;;;2.50;2.27;;;19.00;74.80;;;;;;5023823;28;20464;-80
2022/05/15 00:46:12;;;;;;;2.00;1.90;;;19.00;74.50;;;;;;5015630;28;20487;-81
2022/05/15 00:48:40;;;;;;;2.10;1.87;;;18.90;74.60;;;;;;5016485;28;20546;-81
2022/05/15 00:51:16;;;;;;;1.83;1.70;;;18.80;74.70;;;;;;5018146;28;20464;-82
2022/05/15 00:53:47;;;;;;;3.13;1.97;;;18.80;72.70;;;;;;5031894;28;20494;-80
2022/05/15 00:56:19;;;;;;;2.73;2.23;;;18.80;74.20;;;;;;5026981;28;20480;-81
2022/05/15 00:58:51;;;;;;;4.37;2.40;;;18.80;73.20;;;;;;5022676;28;20514;-82
2022/05/15 01:01:21;;;;;;;2.10;1.90;;;18.70;75.50;;;;;;5014805;28;20847;-82
2022/05/15 01:03:50;;;;;;;2.97;2.67;;;18.70;75.60;;;;;;5025985;28;20452;-83
2022/05/15 01:06:18;;;;;;;4.17;1.93;;;18.70;76.60;;;;;;5011822;28;20918;-81
2022/05/15 01:08:47;;;;;;;3.20;2.43;;;18.70;75.10;;;;;;5027903;28;20456;-82
2022/05/15 01:11:18;;;;;;;2.47;2.10;;;18.70;77.20;;;;;;5025688;28;20790;-81
2022/05/15 01:13:50;;;;;;;2.70;2.17;;;18.70;73.80;;;;;;5019310;28;20481;-82
2022/05/15 01:16:23;;;;;;;3.90;2.77;;;18.60;73.60;;;;;;5029468;28;20481;-79
2022/05/15 01:18:56;;;;;;;2.17;1.70;;;18.60;75.20;;;;;;5017596;28;20523;-80
2022/05/15 01:21:30;;;;;;;3.33;3.03;;;18.60;76.30;;;;;;5020309;28;20464;-81
2022/05/15 01:24:00;;;;;;;3.00;2.57;;;18.60;74.10;;;;;;5023318;28;20867;-80
2022/05/15 01:26:29;;;;;;;2.70;2.50;;;18.60;75.00;;;;;;5016686;28;20841;-80
2022/05/15 01:28:59;;;;;;;3.17;2.50;;;18.50;74.80;;;;;;5024002;28;20455;-79
2022/05/15 01:31:28;;;;;;;2.37;2.17;;;18.50;75.10;;;;;;5022545;28;20456;-80
2022/05/15 01:33:57;;;;;;;3.03;2.10;;;18.50;74.50;;;;;;5018559;28;20474;-81
2022/05/15 01:36:27;;;;;;;2.23;2.03;;;18.50;77.60;;;;;;5023611;28;20504;-81
2022/05/15 01:38:56;;;;;;;3.10;1.73;;;18.50;75.80;;;;;;5027787;28;20459;-80
2022/05/15 01:41:25;;;;;;;3.10;2.90;;;18.40;76.70;;;;;;5019434;28;20644;-80
2022/05/15 01:43:54;;;;;;;3.90;2.60;;;18.40;76.50;;;;;;5017868;28;20542;-82
2022/05/15 01:46:23;;;;;;;2.50;2.30;;;18.40;76.10;;;;;;5023027;28;20481;-81
2022/05/15 01:48:53;;;;;;;2.93;2.27;;;18.40;76.80;;;;;;5035391;28;20517;-81
2022/05/15 01:51:22;;;;;;;4.23;2.70;;;18.40;77.00;;;;;;5030307;28;20476;-81
2022/05/15 01:53:52;;;;;;;2.53;2.33;;;18.30;78.00;;;;;;5022249;28;20526;-81
2022/05/15 01:56:21;;;;;;;2.60;2.40;;;18.40;78.80;;;;;;5019018;28;20474;-81
2022/05/15 01:58:49;;;;;;;2.97;2.43;;;18.30;78.80;;;;;;5026516;28;20490;-81
2022/05/15 02:01:17;;;;;;;4.10;2.50;;;18.50;80.10;;;;;;5027980;28;20479;-81
2022/05/15 02:03:46;;;;;;;3.43;2.60;;;18.30;79.60;;;;;;5019834;28;20503;-79
2022/05/15 02:06:14;;;;;;;3.07;2.17;;;18.30;80.60;;;;;;5024886;28;20471;-81
2022/05/15 02:08:43;;;;;;;2.17;1.97;;;18.30;80.40;;;;;;5025841;28;20989;-82
2022/05/15 02:11:12;;;;;;;3.40;2.23;;;18.20;80.80;;;;;;5016139;28;20447;-80
2022/05/15 02:13:41;;;;;;;2.60;2.40;;;18.20;80.60;;;;;;5025687;28;20467;-80
2022/05/15 02:16:09;;;;;;;1.80;1.70;;;18.20;79.80;;;;;;5016096;28;20543;-77
2022/05/15 02:18:37;;;;;;;2.43;2.23;;;18.10;81.40;;;;;;5025179;28;20523;-81
2022/05/15 02:21:06;;;;;;;2.00;1.90;;;18.10;80.50;;;;;;5022603;28;20553;-81
2022/05/15 02:23:34;;;;;;;2.53;1.93;;;18.00;79.90;;;;;;5021278;28;20445;-81
2022/05/15 02:26:02;;;;;;;2.30;2.00;;;18.10;82.80;;;;;;5021853;28;21140;-81
2022/05/15 02:28:32;;;;;;;3.80;1.87;;;18.10;80.20;;;;;;5015547;28;20514;-79
2022/05/15 02:31:00;;;;;;;2.80;2.07;;;18.00;81.70;;;;;;5015562;28;21096;-81
2022/05/15 02:33:32;;;;;;;5.10;2.27;;;18.00;80.10;;;;;;5034639;28;20471;-81
2022/05/15 02:36:01;;;;;;;2.47;1.90;;;18.00;93.30;;;;;;5016904;28;20510;-81
2022/05/15 02:38:29;;;;;;;2.07;1.87;;;17.90;79.90;;;;;;5020641;28;20467;-82
2022/05/15 02:40:57;;;;;;;2.27;1.80;;;17.90;80.20;;;;;;5013648;28;20465;-82
2022/05/15 02:43:26;;;;;;;2.53;2.17;;;17.90;82.90;;;;;;5024281;28;20476;-82
2022/05/15 02:45:55;;;;;;;2.00;1.83;;;17.90;81.80;;;;;;5025552;28;20514;-82
2022/05/15 02:51:09;;;;;;;3.10;2.20;;;17.90;83.40;;;;;;5015801;28;20461;-81
2022/05/15 02:53:40;;;;;;;2.80;2.37;;;17.90;83.00;;;;;;5024517;28;20495;-82
2022/05/15 02:56:10;;;;;;;2.10;1.90;;;17.90;82.90;;;;;;5012572;28;20486;-81
2022/05/15 02:58:39;;;;;;;2.73;1.90;;;17.90;82.20;;;;;;5020351;28;20484;-81
2022/05/15 03:01:08;;;;;;;4.73;1.97;;;17.80;82.60;;;;;;5018243;28;20529;-82
2022/05/15 03:03:37;;;;;;;3.30;2.13;;;17.80;84.20;;;;;;5018668;28;20549;-81
2022/05/15 03:06:06;;;;;;;4.60;2.40;;;17.80;86.10;;;;;;5021063;28;20608;-82
2022/05/15 03:08:36;;;;;;;2.33;1.97;;;17.70;81.90;;;;;;5019938;28;20463;-82
2022/05/15 03:11:05;;;;;;;3.00;1.97;;;17.70;80.50;;;;;;5017568;28;20460;-82
2022/05/15 03:13:33;;;;;;;2.83;2.00;;;17.70;79.40;;;;;;5018224;28;20517;-82
2022/05/15 03:16:01;;;;;;;4.93;2.60;;;17.70;82.20;;;;;;5018775;28;20484;-81
2022/05/15 03:18:31;;;;;;;2.30;2.10;;;17.70;83.80;;;;;;5019884;28;20452;-81
2022/05/15 03:20:59;;;;;;;1.70;1.60;;;17.60;82.50;;;;;;5022317;28;20462;-80
2022/05/15 03:23:27;;;;;;;5.03;1.77;;;17.60;81.80;;;;;;5015518;28;20951;-84
2022/05/15 03:25:55;;;;;;;2.87;2.53;;;17.60;82.40;;;;;;5021739;28;20517;-81
2022/05/15 03:28:23;;;;;;;2.60;2.40;;;17.50;82.50;;;;;;5018909;28;20521;-83
2022/05/15 03:30:51;;;;;;;5.07;2.30;;;17.50;83.90;;;;;;5020674;28;20571;-82
2022/05/15 03:33:20;;;;;;;1.67;1.57;;;17.50;83.50;;;;;;5022788;28;20470;-82
2022/05/15 03:35:49;;;;;;;1.77;1.67;;;17.40;82.90;;;;;;5018756;28;20505;-82
2022/05/15 03:38:17;;;;;;;3.23;1.77;;;17.50;87.00;;;;;;5024512;28;20458;-82
2022/05/15 03:40:45;;;;;;;1.87;1.77;;;17.50;84.50;;;;;;5029246;28;20823;-82
2022/05/15 03:43:13;;;;;;;3.57;2.37;;;17.50;85.40;;;;;;5024979;28;20461;-81
2022/05/15 03:45:43;;;;;;;3.00;2.13;;;17.40;85.60;;;;;;5026402;28;20544;-83
2022/05/15 03:48:11;;;;;;;2.23;2.03;;;17.40;83.40;;;;;;5034644;28;20538;-82
2022/05/15 03:50:39;;;;;;;2.23;1.90;;;17.40;86.80;;;;;;5019743;28;20538;-82
2022/05/15 03:53:09;;;;;;;2.13;2.03;;;17.40;86.20;;;;;;5024021;28;20476;-82
2022/05/15 03:55:38;;;;;;;1.70;1.60;;;17.40;86.20;;;;;;5023061;28;20562;-81
2022/05/15 03:58:06;;;;;;;2.20;2.00;;;17.40;84.70;;;;;;5022770;28;20468;-80
2022/05/15 04:00:35;;;;;;;2.57;1.77;;;17.30;85.70;;;;;;5029486;28;20452;-82
2022/05/15 04:03:03;;;;;;;3.57;2.20;;;17.30;86.30;;;;;;5022710;28;20458;-82
2022/05/15 04:05:32;;;;;;;3.07;2.40;;;17.30;86.70;;;;;;5029809;28;20556;-81
2022/05/15 04:08:02;;;;;;;7.03;2.13;;;17.30;87.00;;;;;;5015611;28;20497;-82
2022/05/15 04:10:32;;;;;;;2.70;2.03;;;17.30;87.20;;;;;;5023256;28;20460;-82
2022/05/15 04:13:00;;;;;;;4.33;2.33;;;17.40;89.90;;;;;;5028139;28;20978;-83
2022/05/15 04:15:29;;;;;;;2.70;2.23;;;17.30;90.00;;;;;;5022019;28;20558;-83
2022/05/15 04:17:57;;;;;;;2.53;2.10;;;17.40;89.90;;;;;;5023211;28;20485;-83
2022/05/15 04:20:28;;;;;;;2.13;2.00;;;17.40;89.50;;;;;;5025958;28;20451;-81
2022/05/15 04:22:56;;;;;;;2.70;2.10;;;17.30;89.30;;;;;;5020882;28;20827;-82
2022/05/15 04:25:25;;;;;;;2.50;2.33;;;17.40;90.80;;;;;;5023248;28;20856;-81
2022/05/15 04:27:54;;;;;;;2.30;2.10;;;17.30;90.70;;;;;;5025161;28;20545;-82
2022/05/15 04:30:25;;;;;;;2.40;2.20;;;17.30;90.70;;;;;;5019204;28;20555;-82
2022/05/15 04:32:53;;;;;;;2.50;2.30;;;17.30;89.90;;;;;;5017811;28;20539;-82
2022/05/15 04:35:23;;;;;;;2.63;2.07;;;17.30;90.80;;;;;;5026938;28;20596;-82
2022/05/15 04:37:52;;;;;;;2.60;2.40;;;17.30;90.40;;;;;;5022696;28;20473;-81
2022/05/15 04:40:21;;;;;;;3.33;2.50;;;17.30;90.10;;;;;;5016657;28;20462;-81
2022/05/15 04:42:49;;;;;;;2.70;2.50;;;17.30;90.40;;;;;;5027291;28;20459;-82
2022/05/15 04:45:20;;;;;;;2.90;2.47;;;17.30;91.40;;;;;;5020454;28;20473;-81
2022/05/15 04:47:48;;;;;;;5.10;2.70;;;17.30;90.60;;;;;;5026949;28;20464;-82
2022/05/15 04:50:18;;;;;;;3.53;2.97;;;17.30;90.40;;;;;;5024018;28;21257;-81
2022/05/15 04:52:47;;;;;;;4.00;2.50;;;17.30;90.60;;;;;;5022324;28;20806;-83
2022/05/15 04:55:16;;;;;;;2.67;2.47;;;17.40;91.70;;;;;;5020219;28;20979;-82
2022/05/15 04:57:45;;;;;;;2.67;1.97;;;17.40;92.40;;;;;;5027152;28;20457;-82
2022/05/15 05:00:17;;;;;;;2.10;1.90;;;17.40;93.40;;;;;;5022017;28;20457;-82
2022/05/15 05:02:48;;;;;;;2.47;2.27;;;17.40;94.00;;;;;;5018900;28;20453;-81
2022/05/15 05:05:17;;;;;;;2.17;2.03;;;17.40;95.00;;;;;;5019070;28;20519;-82
2022/05/15 05:07:45;;;;;;;2.27;2.07;;;17.40;95.40;;;;;;5021903;28;20484;-82
2022/05/15 05:10:15;;;;;;;3.73;2.30;;;17.40;99.90;;;;;;5025843;28;20475;-82
2022/05/15 05:12:44;;;;;;;2.27;2.07;;;17.40;96.60;;;;;;5020126;28;20445;-82
2022/05/15 05:15:13;;;;;;;3.63;1.90;;;17.40;96.20;;;;;;5016281;28;20877;-82
2022/05/15 05:17:42;;;;;;;2.10;2.00;;;17.50;99.90;;;;;;5020940;28;20456;-83
2022/05/15 05:20:13;;;;;;;4.90;2.60;;;17.50;96.70;;;;;;5018085;28;20475;-82
2022/05/15 05:22:43;;;;;;;3.57;2.63;;;17.50;96.30;;;;;;5032240;28;20459;-82
2022/05/15 05:25:11;;;;;;;2.50;2.30;;;17.60;97.80;;;;;;5016842;28;20473;-83
2022/05/15 05:27:41;;;;;;;2.50;2.30;;;17.60;96.30;;;;;;5020781;28;20496;-82
2022/05/15 05:30:13;;;;;;;3.37;2.47;;;17.60;96.10;;;;;;5024814;28;20464;-82
2022/05/15 05:32:42;;;;;;;2.73;2.53;;;17.60;94.60;;;;;;5022145;28;20489;-83
2022/05/15 05:35:13;;;;;;;5.20;2.63;;;17.70;94.70;;;;;;5022664;28;20473;-82
2022/05/15 05:37:41;;;;;;;2.63;2.43;;;17.70;94.60;;;;;;5022434;28;20451;-84
2022/05/15 05:40:11;;;;;;;2.33;2.20;;;17.80;95.50;;;;;;5019493;28;20982;-82
2022/05/15 05:42:39;;;;;;;2.37;2.17;;;17.80;95.90;;;;;;5024051;28;20456;-80
2022/05/15 05:45:08;;;;;;;6.03;2.50;;;17.90;96.50;;;;;;5017915;28;20479;-82
2022/05/15 05:47:37;;;;;;;2.13;1.87;;;18.00;96.30;;;;;;5022400;28;20829;-82
2022/05/15 05:50:08;;;;;;;3.03;2.60;;;18.00;94.60;;;;;;5023431;28;20462;-82
2022/05/15 05:52:39;;;;;;;2.10;1.90;;;18.10;96.00;;;;;;5026796;28;20459;-83
2022/05/15 05:55:10;;;;;;;2.63;2.40;;;18.10;96.10;;;;;;5022932;28;20499;-82
2022/05/15 05:57:38;;;;;;;3.20;2.87;;;18.20;95.60;;;;;;5023450;28;20480;-82
2022/05/15 06:00:09;;;;;;;2.33;2.13;;;18.30;97.10;;;;;;5018820;28;22517;-82
2022/05/15 06:02:38;;;;;;;3.27;2.60;;;18.40;98.70;;;;;;5020968;28;20455;-82
2022/05/15 06:05:06;;;;;;;2.60;2.10;;;18.40;98.80;;;;;;5021699;28;20498;-81
2022/05/15 06:07:34;;;;;;;3.30;2.30;;;18.40;98.70;;;;;;5019247;28;20956;-82
2022/05/15 06:10:07;;;;;;;1.80;1.70;;;18.50;99.30;;;;;;5025337;28;20467;-81
2022/05/15 06:12:36;;;;;;;3.10;2.57;;;18.60;99.70;;;;;;5017697;28;20445;-81
2022/05/15 06:15:04;;;;;;;2.30;2.10;;;18.70;99.90;;;;;;5017021;28;20479;-80
2022/05/15 06:17:32;;;;;;;2.33;1.90;;;18.70;99.90;;;;;;5019791;28;20542;-81
2022/05/15 06:20:06;;;;;;;3.77;2.30;;;18.80;99.90;;;;;;5021050;28;20567;-81
2022/05/15 06:22:34;;;;;;;3.87;2.20;;;18.90;99.90;;;;;;5018329;28;20527;-82
2022/05/15 06:25:05;;;;;;;3.10;2.80;;;19.00;99.90;;;;;;5022641;28;20474;-81
2022/05/15 06:27:33;;;;;;;4.83;3.80;;;19.00;99.90;;;;;;5021839;28;20474;-82
2022/05/15 06:30:01;;;;;;;2.10;1.90;;;19.10;99.90;;;;;;5022037;28;20516;-81
2022/05/15 06:32:30;;;;;;;3.53;2.20;;;19.10;99.90;;;;;;5018630;28;20523;-83
2022/05/15 06:34:58;;;;;;;2.40;1.90;;;19.30;99.90;;;;;;5016667;28;20475;-81
2022/05/15 06:37:27;;;;;;;2.77;1.80;;;19.40;99.90;;;;;;5014744;28;20491;-82
2022/05/15 06:39:57;;;;;;;2.57;2.23;;;19.60;99.90;;;;;;5018065;28;20461;-81
2022/05/15 06:42:28;;;;;;;4.10;1.60;;;19.70;99.90;;;;;;5022481;28;20457;-81
2022/05/15 06:44:56;;;;;;;2.90;1.87;;;19.90;99.90;;;;;;5017454;28;20486;-83
2022/05/15 06:47:25;;;;;;;1.70;1.60;;;20.10;99.90;;;;;;5013979;28;20449;-81
2022/05/15 06:49:53;;;;;;;3.60;1.60;;;20.20;99.90;;;;;;5027456;28;20459;-81
2022/05/15 06:52:22;;;;;;;2.33;1.80;;;20.40;99.90;;;;;;5026458;28;21227;-81
2022/05/15 06:54:51;;;;;;;2.47;1.90;;;20.60;99.90;;;;;;5025603;28;20503;-82
2022/05/15 06:57:31;;;;;;;2.00;1.80;;;20.70;99.90;;;;;;5024385;28;20478;-81
2022/05/15 07:00:04;;;;;;;1.77;1.67;;;20.80;99.90;;;;;;5024331;28;20498;-80
2022/05/15 07:02:32;;;;;;;1.40;1.30;;;21.00;99.90;;;;;;5009533;28;20464;-82
2022/05/15 07:05:00;;;;;;;1.10;1.00;;;21.20;99.90;;;;;;5012819;28;20480;-81
2022/05/15 07:07:29;;;;;;;1.53;0.90;;;21.30;99.90;;;;;;5011907;28;20469;-82
2022/05/15 07:09:57;;;;;;;1.40;1.20;;;21.50;99.90;;;;;;5017962;28;20482;-82
2022/05/15 07:12:26;;;;;;;2.57;1.10;;;21.50;99.90;;;;;;5027145;28;20453;-84
2022/05/15 07:14:54;;;;;;;1.30;1.20;;;21.60;99.90;;;;;;5027400;28;20975;-83
2022/05/15 07:17:24;;;;;;;1.63;1.10;;;21.70;99.90;;;;;;5022625;28;20487;-82
2022/05/15 07:19:52;;;;;;;1.93;1.07;;;21.80;99.90;;;;;;5020601;28;20862;-80
2022/05/15 07:22:20;;;;;;;1.83;0.97;;;21.90;99.90;;;;;;5013996;28;20468;-82
2022/05/15 07:24:49;;;;;;;1.33;0.90;;;22.00;99.90;;;;;;5023682;28;20472;-81
2022/05/15 07:27:17;;;;;;;1.10;1.00;;;22.10;99.90;;;;;;5016941;28;20487;-82
2022/05/15 07:29:45;;;;;;;1.77;1.10;;;22.20;99.90;;;;;;5024907;28;20478;-82
2022/05/15 07:32:14;;;;;;;1.03;0.93;;;22.20;99.90;;;;;;5025179;28;20460;-81
2022/05/15 07:34:43;;;;;;;1.23;1.03;;;22.30;99.90;;;;;;5018463;28;20552;-80
2022/05/15 07:37:12;;;;;;;0.90;0.90;;;22.30;99.90;;;;;;5016665;28;20546;-80
2022/05/15 07:39:41;;;;;;;2.40;1.00;;;22.40;99.90;;;;;;5027482;28;20465;-81
2022/05/15 07:42:10;;;;;;;1.67;1.03;;;22.30;99.90;;;;;;5019833;28;20468;-80
2022/05/15 07:44:39;;;;;;;2.10;0.70;;;22.30;99.90;;;;;;5020211;28;20493;-82
2022/05/15 07:47:08;;;;;;;1.97;1.30;;;22.20;99.90;;;;;;5020878;28;20942;-80
2022/05/15 07:49:44;;;;;;;3.30;1.10;;;22.30;99.90;;;;;;5030352;28;20451;-82
2022/05/15 07:52:12;;;;;;;0.90;0.90;;;22.30;99.90;;;;;;5026645;28;20452;-81
2022/05/15 07:54:40;;;;;;;1.80;1.00;;;22.30;98.80;;;;;;5019333;28;20482;-81
2022/05/15 07:57:09;;;;;;;2.20;1.07;;;22.30;98.10;;;;;;5019779;28;21038;-82
2022/05/15 07:59:37;;;;;;;1.33;0.80;;;22.30;97.20;;;;;;5031563;28;20444;-81
2022/05/15 08:02:06;;;;;;;1.00;1.00;;;22.30;97.40;;;;;;5036916;28;20452;-81
2022/05/15 08:08:00;;;;;;;1.80;0.90;;;22.30;99.90;;;;;;5033897;28;20464;-81
2022/05/15 08:10:11;;;;;;;2.60;1.00;;;22.50;98.20;;;;;;5023641;28;20507;-80
2022/05/15 08:12:40;;;;;;;0.87;0.87;;;22.50;98.90;;;;;;5030975;28;21199;-81
2022/05/15 08:15:09;;;;;;;1.20;1.00;;;22.50;97.80;;;;;;5028332;28;20468;-80
2022/05/15 08:17:37;;;;;;;1.10;1.00;;;22.60;99.90;;;;;;5025034;28;20480;-80
2022/05/15 08:25:42;;;;;;;1.30;1.20;;;22.80;99.90;;;;;;5023227;28;20947;-77
2022/05/15 08:28:10;;;;;;;1.00;0.93;;;22.80;99.90;;;;;;5025698;28;20456;-78
2022/05/15 08:30:38;;;;;;;1.70;0.90;;;22.80;99.90;;;;;;5028807;28;20440;-78
2022/05/15 08:33:08;;;;;;;2.03;1.20;;;22.80;99.90;;;;;;5024029;28;20514;-78
2022/05/15 08:35:36;;;;;;;1.53;0.90;;;22.80;99.40;;;;;;5022858;28;20561;-78
2022/05/15 08:38:05;;;;;;;1.30;0.80;;;22.80;99.90;;;;;;5023556;28;20484;-78
2022/05/15 08:40:45;;;;;;;1.10;1.00;;;22.80;99.90;;;;;;5023721;28;20547;-78
2022/05/15 08:43:22;;;;;;;1.00;1.00;;;22.90;99.10;;;;;;5025417;28;20468;-78
2022/05/15 08:45:59;;;;;;;0.80;0.80;;;22.90;99.90;;;;;;5021083;28;20484;-80
2022/05/15 08:48:29;;;;;;;1.50;1.00;;;23.00;99.90;;;;;;5021069;28;20460;-78
2022/05/15 08:50:59;;;;;;;1.03;0.90;;;23.00;99.90;;;;;;5021339;28;20526;-77
2022/05/15 08:53:33;;;;;;;2.13;2.00;;;23.00;99.90;;;;;;5028602;28;20518;-78
2022/05/15 08:56:07;;;;;;;0.83;0.83;;;23.10;99.90;;;;;;5029730;28;20476;-77
2022/05/15 08:58:45;;;;;;;1.40;0.90;;;23.20;99.90;;;;;;5026270;28;20472;-77
2022/05/15 09:01:22;;;;;;;1.73;1.30;;;23.20;99.90;;;;;;5022414;28;20483;-77
2022/05/15 09:03:50;;;;;;;0.80;0.80;;;23.20;99.90;;;;;;5025426;28;20507;-77
2022/05/15 09:06:27;;;;;;;1.10;1.00;;;23.20;99.90;;;;;;5025222;28;20629;-78
2022/05/15 09:09:17;;;;;;;1.60;0.93;;;23.20;99.90;;;;;;5027803;28;20506;-80
2022/05/15 09:11:54;;;;;;;1.97;0.90;;;23.20;99.90;;;;;;5028098;28;20533;-76
2022/05/15 09:14:40;;;;;;;1.83;1.70;;;23.20;99.90;;;;;;5020725;28;20464;-78
2022/05/15 09:17:17;;;;;;;2.40;1.00;;;23.20;99.90;;;;;;5036678;28;20816;-77
2022/05/15 09:19:49;;;;;;;1.10;1.00;;;23.30;99.90;;;;;;5023851;28;20460;-79
2022/05/15 09:22:18;;;;;;;1.13;1.03;;;23.40;99.90;;;;;;5025871;28;20448;-78
2022/05/15 09:24:51;;;;;;;1.30;1.17;;;23.40;99.90;;;;;;5027075;28;20480;-79
2022/05/15 09:27:21;;;;;;;1.03;0.93;;;23.40;99.90;;;;;;5025705;28;20457;-78
2022/05/15 09:29:54;;;;;;;1.10;0.77;;;23.40;99.90;;;;;;5019174;28;20448;-78
2022/05/15 09:32:31;;;;;;;1.30;1.10;;;23.50;99.90;;;;;;5029394;28;20464;-78
2022/05/15 09:35:02;;;;;;;1.20;1.10;;;23.50;99.90;;;;;;5030378;28;20471;-77
2022/05/15 09:40:24;;;;;;;2.10;1.00;;;23.60;99.90;;;;;;5025061;28;20468;-78
2022/05/15 09:45:54;;;;;;;1.83;1.37;;;23.70;99.90;;;;;;5020671;28;20881;-78
2022/05/15 09:48:25;;;;;;;4.03;2.40;;;23.70;99.90;;;;;;5014484;28;20823;-77
2022/05/15 09:51:06;;;;;;;1.20;1.10;;;23.80;99.90;;;;;;5022583;28;21131;-78
2022/05/15 09:53:41;;;;;;;1.70;1.23;;;23.80;99.90;;;;;;5014801;28;20881;-79
2022/05/15 09:56:14;;;;;;;1.37;1.10;;;23.90;99.90;;;;;;5021270;28;20567;-78
2022/05/15 09:58:45;;;;;;;1.70;1.10;;;23.90;99.90;;;;;;5024513;28;20472;-79
2022/05/15 10:01:27;;;;;;;1.23;1.13;;;23.90;99.90;;;;;;5021926;28;20448;-78
2022/05/15 10:03:58;;;;;;;1.20;1.10;;;24.00;99.90;;;;;;5024910;28;20458;-79
2022/05/15 10:06:28;;;;;;;1.50;1.40;;;24.00;99.90;;;;;;5019555;28;20483;-79
2022/05/15 10:09:09;;;;;;;1.70;1.10;;;24.00;99.90;;;;;;5025475;28;20436;-79
2022/05/15 10:11:42;;;;;;;3.03;1.53;;;23.90;99.90;;;;;;5023736;28;20452;-78
2022/05/15 10:14:21;;;;;;;3.73;1.27;;;24.00;99.90;;;;;;5023810;28;20526;-79
2022/05/15 10:16:52;;;;;;;1.67;1.20;;;24.00;99.90;;;;;;5019211;28;20480;-79
2022/05/15 10:19:26;;;;;;;1.10;1.00;;;24.10;99.90;;;;;;5029875;28;20479;-79
2022/05/15 10:22:01;;;;;;;2.50;1.30;;;24.10;99.90;;;;;;5022033;28;21071;-79
2022/05/15 10:24:35;;;;;;;2.30;1.27;;;24.10;99.90;;;;;;5032087;28;20856;-78
2022/05/15 10:27:11;;;;;;;1.33;1.23;;;24.10;99.90;;;;;;5028087;28;20457;-78
2022/05/15 10:29:45;;;;;;;1.20;1.10;;;24.10;99.90;;;;;;5021977;28;20448;-77
2022/05/15 10:32:18;;;;;;;1.77;1.10;;;24.10;99.90;;;;;;5023017;28;20219;-79
2022/05/15 10:34:46;;;;;;;1.10;1.00;;;24.20;99.90;;;;;;5029342;28;20476;-78
2022/05/15 10:37:40;;;;;;;2.60;1.17;;;24.20;99.90;;;;;;5025022;28;20475;-79
2022/05/15 10:40:22;;;;;;;2.60;1.30;;;24.20;99.90;;;;;;5017865;28;20561;-79
2022/05/15 10:43:11;;;;;;;1.00;0.90;;;24.30;99.90;;;;;;5014591;28;21920;-79
2022/05/15 10:45:45;;;;;;;1.53;1.10;;;24.40;99.90;;;;;;5027652;28;20478;-78
2022/05/15 10:48:37;;;;;;;0.97;0.90;;;24.40;99.90;;;;;;5024591;28;20468;-79
2022/05/15 10:51:14;;;;;;;2.70;1.83;;;24.50;99.90;;;;;;5021160;28;20452;-81
2022/05/15 10:57:22;;;;;;;4.50;1.40;;;24.50;99.90;;;;;;5024253;28;21135;-79
2022/05/15 10:59:59;;;;;;;1.10;1.00;;;24.50;99.90;;;;;;5023591;28;20534;-79
2022/05/15 11:02:48;;;;;;;1.80;1.70;;;24.50;99.90;;;;;;5020203;28;20521;-80
2022/05/15 11:05:24;;;;;;;1.73;1.07;;;24.50;99.90;;;;;;5020309;28;21037;-79
2022/05/15 11:07:59;;;;;;;1.40;1.03;;;24.60;99.90;;;;;;5026321;28;20451;-79
2022/05/15 11:10:34;;;;;;;1.20;1.10;;;24.50;99.90;;;;;;5020426;28;21040;-79
2022/05/15 11:13:11;;;;;;;1.60;1.03;;;24.60;99.90;;;;;;5022322;28;20454;-79
2022/05/15 11:15:57;;;;;;;1.30;1.20;;;24.70;99.90;;;;;;5015853;28;21302;-79
2022/05/15 11:18:55;;;;;;;1.20;0.90;;;24.70;99.90;;;;;;5021400;28;20480;-79
2022/05/15 11:21:46;;;;;;;2.30;2.07;;;24.70;99.90;;;;;;5020494;28;20451;-80
2022/05/15 11:24:22;;;;;;;1.47;1.10;;;24.80;99.90;;;;;;5024055;28;20510;-79
2022/05/15 11:26:55;;;;;;;1.43;1.00;;;24.70;99.90;;;;;;5031705;28;20951;-79
2022/05/15 11:29:24;;;;;;;2.33;1.10;;;24.80;99.90;;;;;;5026082;28;20486;-79
2022/05/15 11:31:58;;;;;;;4.27;1.20;;;24.80;99.90;;;;;;5027968;28;20453;-79
2022/05/15 11:35:02;;;;;;;1.07;0.90;;;24.80;99.90;;;;;;5024229;28;20465;-79
2022/05/15 11:37:43;;;;;;;2.33;1.57;;;24.80;99.90;;;;;;5015714;28;20448;-78
2022/05/15 11:40:27;;;;;;;5.17;2.13;;;24.90;99.90;;;;;;5019314;28;20484;-78
2022/05/15 11:42:56;;;;;;;2.93;1.20;;;24.80;99.90;;;;;;5017624;28;20451;-78
2022/05/15 11:45:38;;;;;;;1.83;1.50;;;24.80;99.90;;;;;;5018561;28;20560;-78
2022/05/15 11:48:23;;;;;;;1.33;1.23;;;24.80;99.90;;;;;;5018098;28;20488;-78
2022/05/15 11:50:57;;;;;;;1.20;1.10;;;24.80;99.90;;;;;;5016573;28;20456;-79
2022/05/15 11:53:29;;;;;;;1.93;1.30;;;24.90;99.90;;;;;;5014544;28;20836;-78
2022/05/15 11:55:58;;;;;;;1.50;1.40;;;24.90;99.90;;;;;;5015792;28;20539;-78
2022/05/15 11:58:36;;;;;;;1.93;1.30;;;25.00;99.90;;;;;;5018073;28;21035;-78
2022/05/15 12:01:13;;;;;;;1.80;1.60;;;25.00;99.90;;;;;;5020710;28;20983;-79
2022/05/15 12:03:50;;;;;;;1.30;1.07;;;25.00;99.90;;;;;;5016166;28;20459;-79
2022/05/15 12:06:23;;;;;;;1.37;1.27;;;25.00;99.90;;;;;;5014776;28;20503;-80
2022/05/15 12:09:13;;;;;;;2.10;1.37;;;25.00;99.90;;;;;;5017913;28;20447;-79
2022/05/15 12:11:42;;;;;;;1.40;1.30;;;25.00;99.90;;;;;;5018006;28;20452;-81
2022/05/15 12:14:33;;;;;;;1.60;1.10;;;25.10;99.90;;;;;;5021646;28;20190;-81
2022/05/15 12:17:04;;;;;;;1.73;1.60;;;25.00;99.90;;;;;;5027969;28;20457;-80
2022/05/15 12:19:35;;;;;;;1.30;1.20;;;25.00;99.90;;;;;;5023502;28;20481;-78
2022/05/15 12:22:07;;;;;;;1.63;1.10;;;25.00;99.90;;;;;;5025974;28;20526;-80
2022/05/15 12:24:37;;;;;;;1.27;1.17;;;25.10;99.90;;;;;;5021883;28;20995;-81
2022/05/15 12:27:12;;;;;;;1.53;1.30;;;25.00;99.90;;;;;;5027964;28;20471;-79
2022/05/15 12:29:54;;;;;;;1.30;1.20;;;25.10;99.90;;;;;;5018047;28;20816;-80
2022/05/15 12:32:29;;;;;;;2.53;1.00;;;25.20;99.90;;;;;;5020755;28;20464;-80
2022/05/15 12:34:59;;;;;;;1.40;1.00;;;25.10;99.90;;;;;;5029557;28;20479;-80
2022/05/15 12:37:32;;;;;;;1.70;1.10;;;25.10;99.90;;;;;;5026512;28;20467;-81
2022/05/15 12:40:01;;;;;;;2.37;2.07;;;25.20;99.90;;;;;;5026633;28;20476;-80
2022/05/15 12:42:35;;;;;;;2.23;1.30;;;25.20;99.90;;;;;;5027809;28;20835;-80
2022/05/15 12:45:09;;;;;;;1.37;1.27;;;25.30;99.90;;;;;;5029906;28;20480;-79
2022/05/15 12:47:38;;;;;;;2.07;1.10;;;25.40;99.90;;;;;;5023171;28;20465;-80
2022/05/15 12:50:15;;;;;;;1.40;1.10;;;25.30;99.90;;;;;;5028984;28;20453;-82
2022/05/15 12:52:44;;;;;;;1.13;1.03;;;25.30;99.90;;;;;;5028944;28;20472;-80
2022/05/15 12:55:23;;;;;;;1.40;1.30;;;25.30;99.90;;;;;;5025233;28;20481;-81
2022/05/15 12:57:53;;;;;;;1.30;1.20;;;25.40;99.90;;;;;;5028539;28;20819;-80
2022/05/15 13:00:27;;;;;;;1.03;0.93;;;25.30;99.90;;;;;;5024823;28;20484;-80
2022/05/15 13:02:59;;;;;;;1.70;1.20;;;25.30;99.90;;;;;;5012853;28;20465;-80
2022/05/15 13:05:32;;;;;;;1.33;1.00;;;25.40;99.90;;;;;;5027184;28;20479;-80
2022/05/15 13:08:01;;;;;;;1.13;1.03;;;25.50;99.90;;;;;;5015178;28;20463;-80
2022/05/15 13:10:34;;;;;;;1.63;0.97;;;25.60;99.90;;;;;;5029544;28;20479;-80
2022/05/15 13:13:06;;;;;;;2.03;1.00;;;25.70;99.90;;;;;;5020030;28;20452;-80
2022/05/15 13:15:35;;;;;;;1.10;1.00;;;25.80;99.90;;;;;;5029167;28;21278;-81
2022/05/15 13:18:08;;;;;;;1.10;1.00;;;25.80;99.90;;;;;;5018726;28;20456;-80
2022/05/15 13:20:40;;;;;;;0.90;0.90;;;25.90;99.90;;;;;;5029004;28;20502;-80
2022/05/15 13:23:11;;;;;;;1.00;0.90;;;25.90;99.90;;;;;;5027563;28;20456;-80
2022/05/15 13:25:42;;;;;;;1.23;1.13;;;26.00;99.90;;;;;;5021035;28;20564;-81
2022/05/15 13:28:12;;;;;;;1.40;1.30;;;26.00;99.90;;;;;;5028478;28;20508;-81
2022/05/15 13:30:41;;;;;;;1.10;0.93;;;26.00;99.90;;;;;;5029458;28;20460;-81